Time;durP1;ratioP1;P1;durP2;ratioP2;P2;SDS_P1;SDS_P2;PMS_P1;PMS_P2;Temp;Humidity;BMP_temperature;BMP_pressure;BME280_temperature;BME280_humidity;BME280_pressure;Samples;Min_cycle;Max_cycle;Signal;HPM_P1;HPM_P2
2023/06/08 00:01:02;;;;;;;4.55;3.25;;;15.60;99.90;;;;;;6152139;23;20025;-92
2023/06/08 00:03:49;;;;;;;6.68;3.35;;;15.60;99.90;;;;;;6174149;23;20038;-91
2023/06/08 00:06:37;;;;;;;4.00;3.05;;;15.50;99.90;;;;;;6172772;23;20025;-92
2023/06/08 00:09:24;;;;;;;3.97;3.58;;;15.50;99.90;;;;;;6173256;23;20310;-93
2023/06/08 00:12:15;;;;;;;4.13;3.72;;;15.40;99.90;;;;;;6155119;23;20029;-94
2023/06/08 00:15:03;;;;;;;6.07;3.28;;;15.40;99.90;;;;;;6156764;23;20084;-91
2023/06/08 00:18:02;;;;;;;3.50;3.17;;;15.30;99.90;;;;;;6154394;23;20048;-93
2023/06/08 00:20:51;;;;;;;3.50;2.95;;;15.30;99.90;;;;;;6173603;23;20112;-93
2023/06/08 00:23:39;;;;;;;5.45;4.13;;;15.20;99.90;;;;;;6173330;23;20037;-92
2023/06/08 00:26:26;;;;;;;5.95;4.10;;;15.30;99.90;;;;;;6155759;23;20033;-92
2023/06/08 00:29:14;;;;;;;6.38;3.92;;;15.30;99.90;;;;;;6158411;23;20047;-93
2023/06/08 00:32:03;;;;;;;5.13;4.50;;;15.30;99.90;;;;;;6160634;23;20274;-92
2023/06/08 00:34:50;;;;;;;5.55;4.18;;;15.40;99.90;;;;;;6166969;23;20088;-92
2023/06/08 00:37:37;;;;;;;5.47;4.00;;;15.40;99.90;;;;;;6156746;23;20394;-93
2023/06/08 00:40:25;;;;;;;5.30;3.53;;;15.40;99.90;;;;;;6178487;23;20030;-93
2023/06/08 00:43:15;;;;;;;13.52;3.95;;;15.50;99.90;;;;;;6155412;23;20432;-93
2023/06/08 00:46:12;;;;;;;8.23;3.55;;;15.60;99.90;;;;;;6178901;23;20089;-95
2023/06/08 00:49:03;;;;;;;5.15;3.45;;;15.60;99.90;;;;;;6156874;23;20441;-92
2023/06/08 00:51:51;;;;;;;5.13;3.28;;;15.60;99.90;;;;;;6156580;23;20036;-94
2023/06/08 00:58:43;;;;;;;5.90;3.58;;;15.30;99.90;;;;;;6160291;23;20088;-93
2023/06/08 01:01:35;;;;;;;4.57;3.65;;;15.10;99.90;;;;;;6176056;23;20021;-93
2023/06/08 01:04:25;;;;;;;4.65;3.55;;;15.00;99.90;;;;;;6156833;23;20029;-93
2023/06/08 01:07:19;;;;;;;4.55;3.25;;;14.90;99.90;;;;;;6174900;23;20035;-93
2023/06/08 01:10:29;;;;;;;4.05;3.65;;;14.80;99.90;;;;;;6159242;23;20029;-92
2023/06/08 01:13:55;;;;;;;7.03;3.70;;;14.70;99.90;;;;;;6155434;23;20029;-92
2023/06/08 01:16:51;;;;;;;5.28;3.35;;;14.50;99.90;;;;;;6134374;23;20049;-92
2023/06/08 01:19:42;;;;;;;3.80;3.40;;;14.50;99.90;;;;;;6176624;23;20108;-91
2023/06/08 01:22:46;;;;;;;6.43;3.50;;;14.40;99.90;;;;;;6159758;23;20033;-91
2023/06/08 01:25:38;;;;;;;4.60;3.83;;;14.20;99.90;;;;;;6156674;23;20030;-92
2023/06/08 01:28:28;;;;;;;4.85;3.75;;;14.10;1.00;;;;;;6157273;23;20100;-92
2023/06/08 01:31:16;;;;;;;5.05;3.80;;;14.00;1.00;;;;;;6161229;23;20109;-92
2023/06/08 01:34:05;;;;;;;7.22;3.92;;;13.80;1.00;;;;;;6174476;23;20025;-90
2023/06/08 01:37:07;;;;;;;4.75;4.05;;;13.70;1.00;;;;;;6190588;23;20057;-90
2023/06/08 01:40:09;;;;;;;6.97;4.82;;;13.70;1.00;;;;;;6163334;23;20329;-91
2023/06/08 01:42:59;;;;;;;5.13;4.07;;;13.70;1.00;;;;;;6157257;23;20029;-89
2023/06/08 01:45:51;;;;;;;4.50;4.05;;;13.60;1.00;;;;;;6155222;23;20045;-94
2023/06/08 01:48:42;;;;;;;4.97;4.40;;;13.50;1.00;;;;;;6155874;23;20080;-92
2023/06/08 01:51:32;;;;;;;8.93;4.63;;;13.40;1.00;;;;;;6174346;23;20153;-91
2023/06/08 01:54:23;;;;;;;8.00;4.68;;;13.20;20.50;;;;;;6183772;23;20025;-91
2023/06/08 01:57:14;;;;;;;4.82;4.30;;;13.20;42.50;;;;;;6166107;23;20029;-92
2023/06/08 02:00:01;;;;;;;7.55;3.90;;;13.10;61.50;;;;;;6190290;23;20484;-91
2023/06/08 02:02:52;;;;;;;7.28;4.25;;;13.20;99.90;;;;;;6188408;23;20057;-89
2023/06/08 02:05:40;;;;;;;5.15;4.60;;;13.30;99.90;;;;;;6161072;23;20044;-92
2023/06/08 02:08:27;;;;;;;5.28;4.53;;;13.50;84.10;;;;;;6177578;23;20161;-90
2023/06/08 02:11:15;;;;;;;4.88;4.30;;;13.40;44.10;;;;;;6175339;23;20040;-91
2023/06/08 02:14:04;;;;;;;4.35;3.95;;;13.50;41.30;;;;;;6156362;23;20538;-91
2023/06/08 02:16:52;;;;;;;4.40;4.00;;;13.50;12.40;;;;;;6177333;23;20026;-89
2023/06/08 02:19:40;;;;;;;5.97;4.60;;;13.60;1.00;;;;;;6174405;23;20048;-91
2023/06/08 02:22:28;;;;;;;6.38;4.00;;;13.50;1.00;;;;;;6153957;23;20029;-90
2023/06/08 02:25:15;;;;;;;8.90;3.85;;;13.40;1.00;;;;;;6156015;23;20041;-92
2023/06/08 02:28:05;;;;;;;4.68;4.05;;;13.20;1.00;;;;;;6157515;23;20112;-90
2023/06/08 02:30:53;;;;;;;7.18;4.63;;;13.10;5.70;;;;;;6174524;23;20328;-91
2023/06/08 02:33:41;;;;;;;5.28;4.38;;;13.00;64.90;;;;;;6174397;23;20025;-91
2023/06/08 02:36:31;;;;;;;5.00;4.50;;;13.00;99.90;;;;;;6175500;23;20108;-90
2023/06/08 02:39:22;;;;;;;9.02;4.68;;;13.00;99.90;;;;;;6154031;23;20030;-92
2023/06/08 02:42:09;;;;;;;5.40;4.50;;;13.00;99.90;;;;;;6153942;23;20091;-91
2023/06/08 02:44:57;;;;;;;5.60;5.07;;;12.90;99.90;;;;;;6174137;23;20029;-91
2023/06/08 02:47:45;;;;;;;6.80;5.45;;;12.90;99.90;;;;;;6153223;23;20036;-91
2023/06/08 02:50:32;;;;;;;21.83;14.45;;;12.80;99.90;;;;;;6157809;23;20022;-91
2023/06/08 02:53:20;;;;;;;31.92;19.80;;;12.80;99.90;;;;;;6174207;23;20286;-91
2023/06/08 02:56:09;;;;;;;11.43;8.77;;;12.70;99.90;;;;;;6173135;23;20036;-91
2023/06/08 02:58:57;;;;;;;9.35;7.40;;;12.60;99.90;;;;;;6154906;23;20029;-92
2023/06/08 03:01:53;;;;;;;7.45;6.18;;;12.60;99.90;;;;;;6173990;23;20122;-91
2023/06/08 03:04:43;;;;;;;7.28;5.07;;;12.50;99.90;;;;;;6174450;23;20029;-91
2023/06/08 03:07:33;;;;;;;7.70;5.53;;;12.50;99.90;;;;;;6154675;23;20049;-91
2023/06/08 03:10:22;;;;;;;5.82;5.20;;;12.40;99.90;;;;;;6173472;23;20052;-91
2023/06/08 03:13:12;;;;;;;6.50;5.80;;;12.20;99.90;;;;;;6175590;23;20037;-91
2023/06/08 03:16:00;;;;;;;6.40;5.45;;;12.10;1.00;;;;;;6173455;23;20503;-90
2023/06/08 03:18:47;;;;;;;9.13;5.90;;;12.10;1.00;;;;;;6177264;23;20025;-91
2023/06/08 03:21:36;;;;;;;7.28;5.60;;;12.00;1.00;;;;;;6173586;23;20325;-90
2023/06/08 03:24:23;;;;;;;15.82;6.13;;;11.90;36.30;;;;;;6152364;23;20321;-90
2023/06/08 03:27:11;;;;;;;7.97;5.93;;;11.90;99.90;;;;;;6155588;23;20052;-92
2023/06/08 03:29:58;;;;;;;7.03;6.32;;;11.90;99.90;;;;;;6174126;23;20033;-91
2023/06/08 03:32:48;;;;;;;8.57;6.55;;;11.80;99.90;;;;;;6173708;23;20025;-91
2023/06/08 03:35:36;;;;;;;7.55;6.10;;;11.90;99.90;;;;;;6176710;23;20018;-90
2023/06/08 03:38:24;;;;;;;8.27;6.57;;;12.10;99.90;;;;;;6155960;23;20035;-89
2023/06/08 03:41:13;;;;;;;7.57;6.32;;;12.20;99.90;;;;;;6173351;23;20032;-92
2023/06/08 03:44:01;;;;;;;8.20;6.50;;;12.30;99.90;;;;;;6154436;23;20092;-91
2023/06/08 03:46:48;;;;;;;9.27;6.28;;;12.50;99.90;;;;;;6153966;23;20492;-92
2023/06/08 03:49:38;;;;;;;7.13;5.78;;;12.60;99.90;;;;;;6174511;23;20080;-91
2023/06/08 03:52:26;;;;;;;9.93;5.50;;;12.70;99.90;;;;;;6177104;23;20025;-91
2023/06/08 03:55:18;;;;;;;6.40;5.68;;;12.70;15.50;;;;;;6154236;23;20699;-90
2023/06/08 03:58:07;;;;;;;7.35;5.03;;;12.80;1.00;;;;;;6175751;23;20033;-92
2023/06/08 04:01:32;;;;;;;;;;;;;;;;;;;;;
2023/06/08 04:04:44;;;;;;;7.07;5.20;;;13.00;1.00;;;;;;6157463;23;20410;-92
2023/06/08 04:07:34;;;;;;;7.13;4.70;;;13.20;99.90;;;;;;6158252;23;20025;-93
2023/06/08 04:10:22;;;;;;;5.13;4.63;;;13.30;99.90;;;;;;6159246;23;20022;-91
2023/06/08 04:13:10;;;;;;;4.72;4.30;;;13.40;99.90;;;;;;6181157;23;20026;-92
2023/06/08 04:16:03;;;;;;;5.88;5.00;;;13.50;99.90;;;;;;6160734;23;20025;-91
2023/06/08 04:19:26;;;;;;;6.90;4.60;;;13.60;99.90;;;;;;6161459;23;20029;-91
2023/06/08 04:22:32;;;;;;;7.00;4.55;;;13.80;99.90;;;;;;6169448;23;20081;-91
2023/06/08 04:25:29;;;;;;;5.85;4.47;;;13.90;99.90;;;;;;6175511;23;20124;-90
2023/06/08 04:28:17;;;;;;;4.68;4.18;;;14.10;99.90;;;;;;6196793;23;20017;-89
2023/06/08 04:31:04;;;;;;;4.03;3.50;;;14.30;68.80;;;;;;6186814;23;20037;-91
2023/06/08 04:33:52;;;;;;;10.88;3.88;;;14.50;15.70;;;;;;6161611;23;20463;-91
2023/06/08 04:36:42;;;;;;;3.72;3.28;;;14.60;1.00;;;;;;6165651;23;20026;-92
2023/06/08 04:39:29;;;;;;;5.15;3.67;;;14.70;1.00;;;;;;6182108;23;20035;-91
2023/06/08 04:42:17;;;;;;;3.90;3.60;;;14.90;1.00;;;;;;6188038;23;20451;-89
2023/06/08 04:45:08;;;;;;;5.18;3.45;;;14.90;1.00;;;;;;6188039;23;20025;-92
2023/06/08 04:48:09;;;;;;;5.18;3.70;;;15.00;1.00;;;;;;6179984;23;20388;-92
2023/06/08 04:51:49;;;;;;;4.28;3.53;;;15.20;1.00;;;;;;6185685;23;20045;-92
2023/06/08 04:54:55;;;;;;;4.88;3.20;;;15.50;1.00;;;;;;6145092;23;20053;-93
2023/06/08 04:58:03;;;;;;;6.25;3.03;;;15.90;1.00;;;;;;6039586;23;20055;-93
2023/06/08 05:00:52;;;;;;;4.97;3.00;;;16.20;1.00;;;;;;6019909;23;20043;-94
2023/06/08 05:03:54;;;;;;;6.75;3.17;;;16.50;99.90;;;;;;6022816;23;20561;-93
2023/06/08 05:07:12;;;;;;;2.90;2.60;;;16.70;99.90;;;;;;6164092;23;20029;-93
2023/06/08 05:13:54;;;;;;;4.78;3.22;;;16.90;99.90;;;;;;6168893;23;20053;-93
2023/06/08 05:17:11;;;;;;;3.72;2.92;;;16.70;99.90;;;;;;6167145;23;20025;-94
2023/06/08 05:20:25;;;;;;;;;;;;;;;;;;;;;
2023/06/08 05:23:22;;;;;;;4.90;3.88;;;16.50;99.90;;;;;;6156723;23;20475;-90
2023/06/08 05:26:09;;;;;;;7.10;4.22;;;16.30;99.90;;;;;;6132820;23;20033;-91
2023/06/08 05:29:18;;;;;;;5.38;3.83;;;16.10;99.90;;;;;;6149906;23;20049;-91
2023/06/08 05:32:11;;;;;;;6.40;3.60;;;16.20;99.90;;;;;;6156368;23;20025;-92
2023/06/08 05:34:58;;;;;;;6.68;3.63;;;16.30;1.00;;;;;;6134868;23;20108;-93
2023/06/08 05:37:47;;;;;;;4.10;3.30;;;16.50;99.90;;;;;;6171875;23;20022;-92
2023/06/08 05:40:35;;;;;;;4.15;3.40;;;16.70;99.90;;;;;;6166277;23;20033;-90
2023/06/08 05:43:34;;;;;;;3.80;3.50;;;16.90;99.90;;;;;;6159647;23;20041;-92
2023/06/08 05:46:22;;;;;;;6.50;3.47;;;17.10;99.90;;;;;;6159948;23;20034;-91
2023/06/08 05:49:11;;;;;;;7.45;3.40;;;17.20;99.90;;;;;;6137832;23;20128;-92
2023/06/08 05:52:00;;;;;;;5.20;3.40;;;17.30;99.90;;;;;;6156824;23;20029;-91
2023/06/08 05:54:48;;;;;;;5.70;3.47;;;17.50;99.90;;;;;;6156043;23;20325;-90
2023/06/08 05:57:35;;;;;;;4.13;3.63;;;17.60;99.90;;;;;;6155978;23;20057;-92
2023/06/08 06:00:23;;;;;;;8.15;3.08;;;17.90;99.90;;;;;;6154599;23;20039;-92
2023/06/08 06:03:10;;;;;;;4.80;3.20;;;18.10;99.90;;;;;;6175339;23;20029;-92
2023/06/08 06:06:10;;;;;;;4.88;3.67;;;18.40;99.90;;;;;;6172691;23;20100;-92
2023/06/08 06:17:00;;;;;;;3.40;3.10;;;18.70;99.90;;;;;;6016153;23;20039;-89
2023/06/08 06:19:53;;;;;;;6.65;3.35;;;18.70;99.90;;;;;;6094773;23;20032;-91
2023/06/08 06:22:41;;;;;;;3.80;3.00;;;18.80;99.90;;;;;;6155232;23;20017;-88
2023/06/08 06:25:28;;;;;;;3.75;2.53;;;19.00;99.90;;;;;;6172745;23;20026;-89
2023/06/08 06:28:15;;;;;;;3.28;2.97;;;19.30;99.90;;;;;;6156203;23;20096;-89
2023/06/08 06:31:10;;;;;;;3.13;2.83;;;19.50;99.90;;;;;;6154192;23;20025;-91
2023/06/08 06:33:57;;;;;;;3.40;2.72;;;19.60;99.90;;;;;;6155367;23;20057;-91
2023/06/08 06:36:45;;;;;;;3.78;2.85;;;19.70;99.90;;;;;;6155089;23;20030;-89
2023/06/08 06:39:32;;;;;;;3.42;3.10;;;19.80;99.90;;;;;;6172922;23;20029;-89
2023/06/08 06:42:20;;;;;;;5.50;3.00;;;20.10;99.90;;;;;;6154000;23;20029;-91
2023/06/08 06:45:11;;;;;;;3.25;2.80;;;20.40;99.90;;;;;;6173664;23;20452;-91
2023/06/08 06:47:58;;;;;;;3.15;2.60;;;20.80;99.90;;;;;;6153659;23;20025;-91
2023/06/08 06:50:46;;;;;;;3.08;2.47;;;21.00;99.90;;;;;;6173878;23;20179;-91
2023/06/08 06:53:35;;;;;;;3.20;2.80;;;21.10;99.90;;;;;;6178622;23;20040;-92
2023/06/08 06:56:28;;;;;;;2.85;2.55;;;21.10;99.90;;;;;;6184840;23;20307;-89
2023/06/08 06:59:15;;;;;;;3.00;2.75;;;21.20;99.90;;;;;;6155106;23;20036;-89
2023/06/08 07:02:03;;;;;;;3.00;2.33;;;21.40;99.90;;;;;;6153910;23;20045;-90
2023/06/08 07:04:54;;;;;;;3.97;3.13;;;21.70;99.90;;;;;;6154100;23;20031;-89
2023/06/08 07:07:41;;;;;;;4.50;3.22;;;21.70;99.90;;;;;;6174318;23;20022;-88
2023/06/08 07:10:29;;;;;;;3.08;2.72;;;21.90;99.90;;;;;;6172765;23;20021;-92
2023/06/08 07:13:16;;;;;;;4.90;2.95;;;22.30;99.90;;;;;;6172239;23;20022;-88
2023/06/08 07:16:05;;;;;;;6.15;2.75;;;22.50;97.70;;;;;;6154035;23;20080;-92
2023/06/08 07:18:52;;;;;;;3.50;2.70;;;22.80;91.50;;;;;;6154118;23;20025;-91
2023/06/08 07:21:40;;;;;;;3.92;2.47;;;23.60;99.90;;;;;;6174871;23;20053;-90
2023/06/08 07:24:40;;;;;;;3.15;2.42;;;23.80;90.30;;;;;;6153416;23;20516;-91
2023/06/08 07:27:47;;;;;;;3.92;2.55;;;24.10;47.50;;;;;;6153439;23;20034;-90
2023/06/08 07:30:35;;;;;;;2.90;2.53;;;24.10;68.50;;;;;;6172416;23;20049;-91
2023/06/08 07:33:25;;;;;;;5.72;2.83;;;23.20;57.40;;;;;;6171550;23;20022;-89
2023/06/08 07:36:17;;;;;;;4.18;3.22;;;22.50;91.10;;;;;;6154405;23;20032;-89
2023/06/08 07:39:04;;;;;;;7.57;3.40;;;22.40;96.50;;;;;;6156408;23;20033;-89
2023/06/08 07:41:54;;;;;;;3.28;2.97;;;22.50;88.50;;;;;;6173095;23;20029;-90
2023/06/08 07:44:41;;;;;;;3.70;3.20;;;22.90;95.50;;;;;;6152967;23;20026;-92
2023/06/08 07:47:28;;;;;;;4.82;3.20;;;23.10;91.80;;;;;;6153907;23;20033;-92
2023/06/08 07:50:16;;;;;;;3.20;2.95;;;23.10;83.80;;;;;;6154688;23;20025;-91
2023/06/08 07:53:05;;;;;;;3.33;2.85;;;23.40;97.00;;;;;;6153952;23;20033;-93
2023/06/08 07:55:53;;;;;;;3.50;3.17;;;24.30;90.30;;;;;;6173552;23;20033;-92
2023/06/08 07:58:40;;;;;;;4.97;2.15;;;25.40;52.30;;;;;;6172720;23;20034;-88
2023/06/08 08:01:30;;;;;;;4.07;2.28;;;26.70;46.10;;;;;;6153795;23;20033;-91
2023/06/08 08:04:20;;;;;;;4.07;2.50;;;28.10;29.30;;;;;;6154380;23;20025;-91
2023/06/08 08:07:10;;;;;;;2.88;2.58;;;28.90;25.60;;;;;;6153888;23;20044;-91
2023/06/08 08:09:57;;;;;;;3.78;2.35;;;29.40;30.30;;;;;;6154308;23;20021;-91
2023/06/08 08:12:45;;;;;;;3.17;2.42;;;29.40;37.70;;;;;;6154696;23;20040;-88
2023/06/08 08:15:34;;;;;;;4.47;2.15;;;29.50;48.20;;;;;;6158680;23;20026;-92
2023/06/08 08:18:24;;;;;;;5.80;2.45;;;29.80;48.50;;;;;;6156985;23;20065;-90
2023/06/08 08:21:11;;;;;;;4.55;2.53;;;29.60;43.50;;;;;;6156491;23;20061;-93
2023/06/08 08:24:00;;;;;;;2.92;2.60;;;30.20;54.90;;;;;;6175722;23;20029;-91
2023/06/08 08:26:52;;;;;;;4.28;2.58;;;30.90;48.30;;;;;;6162151;23;20088;-89
2023/06/08 08:29:40;;;;;;;4.95;2.97;;;31.20;57.30;;;;;;6164804;23;20509;-91
2023/06/08 08:32:27;;;;;;;3.10;2.80;;;31.20;43.80;;;;;;6188013;23;20036;-93
2023/06/08 08:35:15;;;;;;;3.45;3.00;;;31.10;90.50;;;;;;6158521;23;20037;-90
2023/06/08 08:38:29;;;;;;;3.80;3.20;;;31.00;63.10;;;;;;6156872;23;20032;-92
2023/06/08 08:42:01;;;;;;;4.75;2.97;;;31.20;83.40;;;;;;6155819;23;20561;-93
2023/06/08 08:44:54;;;;;;;4.90;3.08;;;31.40;91.20;;;;;;6155681;23;20044;-93
2023/06/08 08:47:42;;;;;;;3.05;2.80;;;31.80;99.90;;;;;;6162754;23;20033;-91
2023/06/08 08:50:39;;;;;;;3.13;2.83;;;32.10;99.90;;;;;;6161613;23;20021;-93
2023/06/08 08:54:12;;;;;;;3.35;2.70;;;32.30;99.90;;;;;;6161933;23;20025;-93
2023/06/08 09:00:33;;;;;;;3.13;2.80;;;32.50;99.90;;;;;;6159340;23;20333;-93
2023/06/08 09:03:20;;;;;;;11.15;2.80;;;32.10;23.00;;;;;;6159761;23;20037;-92
2023/06/08 09:06:08;;;;;;;3.88;2.92;;;32.20;99.90;;;;;;6178246;23;20033;-93
2023/06/08 09:08:56;;;;;;;3.63;2.88;;;32.70;99.90;;;;;;6180521;23;20018;-92
2023/06/08 09:11:57;;;;;;;3.25;2.92;;;32.80;99.90;;;;;;6158512;23;20029;-91
2023/06/08 09:14:57;;;;;;;5.50;3.15;;;32.60;99.90;;;;;;6158601;23;20088;-89
2023/06/08 09:17:51;;;;;;;5.68;3.05;;;32.30;99.90;;;;;;6164562;23;20044;-92
2023/06/08 09:20:38;;;;;;;5.60;3.30;;;32.10;99.90;;;;;;6170951;23;20469;-91
2023/06/08 09:23:30;;;;;;;5.57;3.05;;;32.20;99.90;;;;;;6175541;23;20424;-92
2023/06/08 09:26:32;;;;;;;2.80;2.60;;;32.50;99.90;;;;;;6183398;23;20021;-91
2023/06/08 09:29:47;;;;;;;4.28;2.97;;;33.30;99.90;;;;;;6173096;23;20029;-91
2023/06/08 09:32:58;;;;;;;4.72;2.80;;;33.30;90.50;;;;;;6161872;23;20021;-92
2023/06/08 09:36:18;;;;;;;5.85;3.05;;;33.00;99.90;;;;;;6163568;23;20017;-93
2023/06/08 09:51:37;;;;;;;3.75;2.90;;;32.30;99.90;;;;;;6110312;23;20078;-93
2023/06/08 09:54:36;;;;;;;9.45;3.35;;;31.50;99.90;;;;;;6110070;23;20334;-93
2023/06/08 09:58:00;;;;;;;3.22;2.92;;;31.00;99.90;;;;;;6102783;23;20026;-93
2023/06/08 10:00:51;;;;;;;12.20;3.88;;;31.50;99.90;;;;;;6103080;23;20454;-93
2023/06/08 10:03:47;;;;;;;3.72;3.28;;;31.70;99.90;;;;;;6130159;23;20045;-93
2023/06/08 10:06:36;;;;;;;4.53;3.70;;;31.80;99.90;;;;;;6160434;23;20029;-92
2023/06/08 10:13:19;;;;;;;5.95;3.38;;;32.00;99.90;;;;;;6165377;23;20436;-89
2023/06/08 10:16:08;;;;;;;4.43;2.70;;;33.00;99.90;;;;;;6165322;23;20025;-89
2023/06/08 10:18:57;;;;;;;3.40;3.10;;;33.60;99.90;;;;;;6159511;23;20476;-93
2023/06/08 10:21:48;;;;;;;5.97;3.28;;;32.30;99.90;;;;;;6158518;23;20092;-90
2023/06/08 10:24:37;;;;;;;8.85;3.25;;;32.50;99.90;;;;;;6154396;23;20022;-91
2023/06/08 10:27:24;;;;;;;4.13;2.97;;;33.30;99.90;;;;;;6155086;23;20310;-92
2023/06/08 10:30:42;;;;;;;6.38;3.53;;;34.00;99.90;;;;;;6157931;23;20078;-90
2023/06/08 10:33:31;;;;;;;4.43;3.08;;;34.40;99.90;;;;;;6175939;23;20384;-89
2023/06/08 10:36:19;;;;;;;4.95;3.15;;;34.40;99.90;;;;;;6174227;23;20140;-93
2023/06/08 10:39:14;;;;;;;;;;;34.50;99.90;;;;;;6156257;23;20421;-93
2023/06/08 10:42:06;;;;;;;4.82;3.40;;;34.80;99.90;;;;;;6177393;23;19935;-92
2023/06/08 10:44:54;;;;;;;5.40;3.65;;;34.60;99.90;;;;;;6180812;23;20270;-92
2023/06/08 10:47:42;;;;;;;5.18;3.35;;;34.30;99.90;;;;;;6164344;23;20029;-92
2023/06/08 10:50:44;;;;;;;3.88;3.33;;;34.30;99.90;;;;;;6157201;23;20048;-94
2023/06/08 10:53:57;;;;;;;4.78;3.55;;;34.20;99.90;;;;;;6167286;23;20105;-92
2023/06/08 10:56:54;;;;;;;4.72;2.80;;;34.70;99.90;;;;;;6157490;23;20034;-94
2023/06/08 10:59:55;;;;;;;4.15;3.25;;;35.20;99.90;;;;;;6156777;23;20082;-93
2023/06/08 11:02:44;;;;;;;3.53;3.20;;;35.70;99.90;;;;;;6159081;23;20030;-91
2023/06/08 11:05:36;;;;;;;6.43;3.35;;;35.30;99.90;;;;;;6177149;23;20025;-93
2023/06/08 11:08:28;;;;;;;3.50;3.20;;;34.80;99.90;;;;;;6154925;23;20030;-90
2023/06/08 11:11:31;;;;;;;3.80;3.22;;;33.80;99.90;;;;;;6154696;23;20044;-92
2023/06/08 11:14:20;;;;;;;5.75;3.13;;;32.90;99.90;;;;;;6154467;23;20112;-91
2023/06/08 11:17:07;;;;;;;5.47;3.58;;;32.00;99.90;;;;;;6154151;23;20054;-91
2023/06/08 11:19:56;;;;;;;4.70;3.55;;;31.00;99.90;;;;;;6156800;23;20053;-92
2023/06/08 11:22:44;;;;;;;4.65;3.97;;;30.30;99.90;;;;;;6174331;23;20032;-89
2023/06/08 11:25:31;;;;;;;4.25;3.72;;;29.90;99.90;;;;;;6154153;23;20036;-88
2023/06/08 11:28:19;;;;;;;4.63;3.10;;;30.70;99.90;;;;;;6155639;23;20033;-92
2023/06/08 11:31:09;;;;;;;4.05;3.22;;;31.30;99.90;;;;;;6154930;23;20044;-93
2023/06/08 11:34:17;;;;;;;4.07;3.67;;;30.90;99.90;;;;;;6185061;23;20035;-90
2023/06/08 11:37:07;;;;;;;4.50;3.92;;;30.10;99.90;;;;;;6161916;23;20449;-92
2023/06/08 11:39:58;;;;;;;5.80;3.97;;;28.80;99.90;;;;;;6155077;23;20456;-87
2023/06/08 11:42:45;;;;;;;4.47;3.72;;;27.80;99.90;;;;;;6155388;23;20029;-87
2023/06/08 11:45:33;;;;;;;6.53;3.88;;;27.20;99.90;;;;;;6173075;23;20021;-90
2023/06/08 11:48:23;;;;;;;6.47;4.20;;;26.20;99.90;;;;;;6172735;23;20036;-91
2023/06/08 11:51:13;;;;;;;4.50;4.03;;;25.50;99.90;;;;;;6158244;23;20321;-92
2023/06/08 11:54:02;;;;;;;7.82;4.38;;;24.80;99.90;;;;;;6155732;23;20128;-93
2023/06/08 11:56:50;;;;;;;4.75;4.22;;;23.50;99.90;;;;;;6175558;23;20030;-94
2023/06/08 11:59:42;;;;;;;12.75;4.78;;;22.30;99.90;;;;;;6157141;23;20026;-92
2023/06/08 12:02:31;;;;;;;5.75;4.20;;;21.60;99.90;;;;;;6156473;23;20108;-93
2023/06/08 12:05:23;;;;;;;7.07;4.75;;;21.30;99.90;;;;;;6157401;23;20080;-92
2023/06/08 12:08:14;;;;;;;8.38;5.10;;;21.10;99.90;;;;;;6174639;23;20095;-89
2023/06/08 12:11:13;;;;;;;7.23;4.53;;;21.00;99.90;;;;;;6157434;23;20022;-91
2023/06/08 12:14:03;;;;;;;7.30;4.97;;;20.80;99.90;;;;;;6174553;23;20600;-91
2023/06/08 12:17:39;;;;;;;6.10;4.88;;;20.60;99.90;;;;;;6175082;23;20432;-93
2023/06/08 12:20:54;;;;;;;8.82;5.78;;;20.50;99.90;;;;;;6158497;23;20021;-93
2023/06/08 12:24:46;;;;;;;6.85;5.25;;;20.30;99.90;;;;;;6157903;23;20124;-93
2023/06/08 12:32:16;;;;;;;8.52;4.32;;;20.10;99.90;;;;;;6067257;23;20029;-92
2023/06/08 12:35:23;;;;;;;6.25;4.28;;;20.00;99.90;;;;;;6069015;23;20055;-94
2023/06/08 12:38:24;;;;;;;5.47;4.13;;;20.20;99.90;;;;;;6047402;23;20027;-90
2023/06/08 12:41:23;;;;;;;6.93;4.22;;;20.20;99.90;;;;;;6047137;23;20034;-93
2023/06/08 12:49:06;;;;;;;8.20;5.38;;;20.20;99.90;;;;;;6035832;23;20023;-93
2023/06/08 12:52:03;;;;;;;6.30;4.65;;;19.70;99.90;;;;;;6095551;23;20096;-94
2023/06/08 12:55:06;;;;;;;9.70;5.28;;;19.30;99.90;;;;;;6149559;23;20460;-89
2023/06/08 12:57:54;;;;;;;6.85;4.47;;;19.30;99.90;;;;;;6175322;23;20420;-91
2023/06/08 13:00:48;;;;;;;7.97;4.88;;;19.60;99.90;;;;;;6155896;23;20033;-94
2023/06/08 13:03:47;;;;;;;7.25;4.53;;;20.10;99.90;;;;;;6173994;23;20029;-91
2023/06/08 13:06:59;;;;;;;8.10;4.60;;;20.60;99.90;;;;;;6158446;23;20085;-92
2023/06/08 13:09:46;;;;;;;7.85;4.60;;;21.30;99.90;;;;;;6182016;23;20516;-91
2023/06/08 13:13:27;;;;;;;4.70;4.20;;;21.50;99.90;;;;;;6181470;23;20089;-93
2023/06/08 13:16:44;;;;;;;7.78;4.78;;;21.90;99.90;;;;;;6160357;23;20018;-91
2023/06/08 13:20:11;;;;;;;7.47;4.55;;;22.40;99.90;;;;;;6158431;23;20029;-92
2023/06/08 13:23:32;;;;;;;;;;;22.90;99.90;;;;;;6174541;23;20088;-90
2023/06/08 13:26:22;;;;;;;6.63;3.78;;;23.30;99.90;;;;;;6158493;23;19920;-91
2023/06/08 13:29:20;;;;;;;6.90;4.43;;;23.80;99.90;;;;;;6158271;23;20278;-91
2023/06/08 13:32:12;;;;;;;5.90;3.83;;;24.10;99.90;;;;;;6155374;23;20026;-90
2023/06/08 13:34:59;;;;;;;5.45;3.67;;;23.80;99.90;;;;;;6157757;23;20029;-88
2023/06/08 13:37:47;;;;;;;4.47;3.65;;;23.70;99.90;;;;;;6174006;23;20462;-89
2023/06/08 13:40:36;;;;;;;3.88;3.38;;;24.10;99.90;;;;;;6154683;23;20056;-90
2023/06/08 13:43:24;;;;;;;4.65;3.65;;;24.30;99.90;;;;;;6155911;23;20313;-92
2023/06/08 13:46:12;;;;;;;4.82;3.28;;;24.60;99.90;;;;;;6178892;23;20077;-89
2023/06/08 13:49:02;;;;;;;6.50;3.65;;;24.30;99.90;;;;;;6180170;23;20205;-91
2023/06/08 13:51:52;;;;;;;5.35;3.95;;;24.20;99.90;;;;;;6181818;23;20026;-86
2023/06/08 13:54:40;;;;;;;6.55;3.90;;;24.40;99.90;;;;;;6181594;23;20078;-88
2023/06/08 13:57:28;;;;;;;6.35;3.78;;;24.60;99.90;;;;;;6164450;23;20025;-91
2023/06/08 14:00:16;;;;;;;6.80;3.67;;;25.10;99.90;;;;;;6161387;23;20033;-90
2023/06/08 14:03:04;;;;;;;4.20;3.45;;;25.60;99.90;;;;;;6158860;23;20026;-91
2023/06/08 14:05:51;;;;;;;4.63;3.35;;;25.70;99.90;;;;;;6176255;23;20313;-89
2023/06/08 14:08:41;;;;;;;5.05;3.15;;;25.90;99.90;;;;;;6154048;23;20025;-89
2023/06/08 14:11:28;;;;;;;7.95;4.43;;;26.20;99.90;;;;;;6154997;23;20125;-90
2023/06/08 14:14:18;;;;;;;7.35;4.05;;;26.60;99.90;;;;;;6174108;23;20030;-90
2023/06/08 14:17:05;;;;;;;6.00;4.03;;;27.30;99.90;;;;;;6157046;23;20366;-86
2023/06/08 14:20:08;;;;;;;6.47;4.07;;;27.90;99.90;;;;;;6159411;23;20433;-90
2023/06/08 14:22:56;;;;;;;5.32;3.80;;;28.50;99.90;;;;;;6154702;23;20022;-88
2023/06/08 14:25:44;;;;;;;4.47;3.30;;;29.10;99.90;;;;;;6177959;23;20025;-87
2023/06/08 14:28:44;;;;;;;4.13;3.38;;;30.20;99.90;;;;;;6154519;23;20123;-90
2023/06/08 14:31:33;;;;;;;4.88;3.45;;;32.30;99.90;;;;;;6173996;23;20029;-90
2023/06/08 14:35:02;;;;;;;3.70;3.35;;;32.80;99.90;;;;;;6154697;23;20029;-92
2023/06/08 14:38:12;;;;;;;3.80;3.40;;;33.60;99.90;;;;;;6164030;23;20437;-93
2023/06/08 14:41:20;;;;;;;4.65;2.70;;;34.20;99.90;;;;;;6157591;23;20029;-92
2023/06/08 14:44:51;;;;;;;5.63;3.20;;;33.60;99.90;;;;;;6164007;23;20030;-90
2023/06/08 14:48:04;;;;;;;4.47;3.25;;;33.20;99.90;;;;;;6180725;23;20030;-89
2023/06/08 14:50:54;;;;;;;3.67;3.15;;;32.80;99.90;;;;;;6180148;23;20025;-90
2023/06/08 14:53:43;;;;;;;4.07;2.97;;;33.40;99.90;;;;;;6176464;23;20025;-88
2023/06/08 14:56:31;;;;;;;5.97;3.40;;;33.20;99.90;;;;;;6161346;23;20033;-91
2023/06/08 14:59:18;;;;;;;6.82;3.50;;;32.60;99.90;;;;;;6157744;23;20049;-92
2023/06/08 15:02:08;;;;;;;4.10;3.58;;;33.00;99.90;;;;;;6161594;23;20104;-90
2023/06/08 15:04:55;;;;;;;3.33;2.90;;;33.40;99.90;;;;;;6175481;23;20036;-87
2023/06/08 15:07:43;;;;;;;3.90;3.40;;;34.00;99.90;;;;;;6154490;23;20032;-90
2023/06/08 15:10:35;;;;;;;7.57;3.90;;;33.70;99.90;;;;;;6155639;23;20029;-90
2023/06/08 15:13:23;;;;;;;5.03;3.83;;;32.90;99.90;;;;;;6154775;23;20030;-90
2023/06/08 15:16:11;;;;;;;4.25;3.25;;;31.90;99.90;;;;;;6157400;23;20033;-90
2023/06/08 15:19:01;;;;;;;6.50;3.50;;;30.50;99.90;;;;;;6154875;23;20100;-90
2023/06/08 15:21:50;;;;;;;4.00;3.17;;;28.60;99.90;;;;;;6155999;23;20036;-90
2023/06/08 15:24:38;;;;;;;3.63;3.33;;;27.50;99.90;;;;;;6156470;23;20029;-92
2023/06/08 15:27:26;;;;;;;4.10;3.70;;;27.00;99.90;;;;;;6156342;23;20032;-92
2023/06/08 15:30:13;;;;;;;6.90;4.20;;;26.20;99.90;;;;;;6157787;23;20036;-90
2023/06/08 15:33:01;;;;;;;4.65;3.35;;;25.50;99.90;;;;;;6156520;23;20026;-88
2023/06/08 15:36:11;;;;;;;5.05;3.88;;;24.70;99.90;;;;;;6160001;23;20325;-93
2023/06/08 15:39:08;;;;;;;5.50;3.42;;;24.00;99.90;;;;;;6156898;23;20040;-89
2023/06/08 15:42:26;;;;;;;;;;;;;;;;;;;;;
2023/06/08 15:45:49;;;;;;;5.13;3.35;;;23.30;99.90;;;;;;6159273;23;20139;-90
2023/06/08 15:49:17;;;;;;;4.00;3.22;;;23.30;99.90;;;;;;6157247;23;20041;-90
2023/06/08 15:52:06;;;;;;;6.05;3.45;;;23.10;99.90;;;;;;6154770;23;20053;-92
2023/06/08 15:54:56;;;;;;;5.55;2.97;;;23.10;99.90;;;;;;6159100;23;20036;-89